sensor_id;sensor_type;location;lat;lon;timestamp;pressure;altitude;pressure_sealevel;temperature;humidity
50650;BME280;36621;60.058;30.346;2023-03-14T00:01:27;98708.66;;;-0.36;76.26
50650;BME280;36621;60.058;30.346;2023-03-14T00:08:59;98695.25;;;-0.36;76.67
50650;BME280;36621;60.058;30.346;2023-03-14T00:16:32;98656.09;;;-0.37;76.83
50650;BME280;36621;60.058;30.346;2023-03-14T00:24:04;98646.38;;;-0.43;76.20
50650;BME280;36621;60.058;30.346;2023-03-14T00:31:37;98636.97;;;-0.19;76.53
50650;BME280;36621;60.058;30.346;2023-03-14T00:39:14;98598.09;;;-0.16;77.08
50650;BME280;36621;60.058;30.346;2023-03-14T00:46:47;98558.34;;;-0.24;77.08
50650;BME280;36621;60.058;30.346;2023-03-14T00:54:19;98510.22;;;-0.04;75.95
50650;BME280;36621;60.058;30.346;2023-03-14T01:01:52;98500.84;;;-0.01;77.29
50650;BME280;36621;60.058;30.346;2023-03-14T01:09:24;98458.38;;;-0.14;78.06
50650;BME280;36621;60.058;30.346;2023-03-14T01:16:57;98434.28;;;-0.04;77.25
50650;BME280;36621;60.058;30.346;2023-03-14T01:24:33;98371.28;;;-0.44;78.10
50650;BME280;36621;60.058;30.346;2023-03-14T01:32:06;98404.78;;;0.01;77.75
50650;BME280;36621;60.058;30.346;2023-03-14T01:39:38;98390.03;;;-0.02;76.55
50650;BME280;36621;60.058;30.346;2023-03-14T01:47:11;98382.53;;;0.01;76.90
50650;BME280;36621;60.058;30.346;2023-03-14T01:54:44;98350.16;;;0.17;76.52
50650;BME280;36621;60.058;30.346;2023-03-14T02:02:19;98347.75;;;0.26;77.68
50650;BME280;36621;60.058;30.346;2023-03-14T02:09:51;98333.47;;;0.15;77.80
50650;BME280;36621;60.058;30.346;2023-03-14T02:17:30;98298.63;;;0.26;77.33
50650;BME280;36621;60.058;30.346;2023-03-14T02:25:24;98286.09;;;0.52;76.92
50650;BME280;36621;60.058;30.346;2023-03-14T02:33:03;98276.16;;;0.63;76.92
50650;BME280;36621;60.058;30.346;2023-03-14T02:40:35;98247.41;;;0.58;76.30
50650;BME280;36621;60.058;30.346;2023-03-14T02:48:13;98247.69;;;0.67;77.74
50650;BME280;36621;60.058;30.346;2023-03-14T02:55:46;98259.19;;;1.24;76.94
50650;BME280;36621;60.058;30.346;2023-03-14T03:03:21;98250.91;;;1.00;76.40
50650;BME280;36621;60.058;30.346;2023-03-14T03:10:55;98227.50;;;1.00;76.54
50650;BME280;36621;60.058;30.346;2023-03-14T03:18:29;98187.72;;;1.02;77.35
50650;BME280;36621;60.058;30.346;2023-03-14T03:26:01;98181.53;;;1.17;77.14
50650;BME280;36621;60.058;30.346;2023-03-14T03:33:35;98135.84;;;1.17;77.04
50650;BME280;36621;60.058;30.346;2023-03-14T03:41:09;98195.41;;;1.50;76.61
50650;BME280;36621;60.058;30.346;2023-03-14T03:48:46;98152.09;;;1.52;77.63
50650;BME280;36621;60.058;30.346;2023-03-14T03:56:19;98139.09;;;1.64;76.75
50650;BME280;36621;60.058;30.346;2023-03-14T04:03:52;98126.72;;;1.68;77.17
50650;BME280;36621;60.058;30.346;2023-03-14T12:53:44;98365.75;;;9.14;72.52
50650;BME280;36621;60.058;30.346;2023-03-14T13:01:21;98365.56;;;8.75;69.93
50650;BME280;36621;60.058;30.346;2023-03-14T13:08:54;98396.97;;;8.73;70.30
50650;BME280;36621;60.058;30.346;2023-03-14T13:16:27;98384.44;;;8.63;70.48
50650;BME280;36621;60.058;30.346;2023-03-14T13:24:04;98367.78;;;8.47;71.05
50650;BME280;36621;60.058;30.346;2023-03-14T13:31:37;98399.50;;;8.69;69.91
50650;BME280;36621;60.058;30.346;2023-03-14T13:39:18;98400.81;;;8.89;70.29
50650;BME280;36621;60.058;30.346;2023-03-14T13:46:50;98420.31;;;8.82;69.91
50650;BME280;36621;60.058;30.346;2023-03-14T13:54:25;98435.06;;;8.81;70.95
50650;BME280;36621;60.058;30.346;2023-03-14T14:02:00;98447.47;;;8.65;70.13
50650;BME280;36621;60.058;30.346;2023-03-14T14:09:38;98448.59;;;8.55;70.74
50650;BME280;36621;60.058;30.346;2023-03-14T14:17:14;98452.91;;;8.56;70.74
50650;BME280;36621;60.058;30.346;2023-03-14T14:24:49;98446.03;;;8.59;70.31
50650;BME280;36621;60.058;30.346;2023-03-14T14:32:23;98451.81;;;8.66;70.24
50650;BME280;36621;60.058;30.346;2023-03-14T14:39:57;98475.72;;;8.46;71.01
50650;BME280;36621;60.058;30.346;2023-03-14T14:47:30;98456.09;;;8.18;71.50
50650;BME280;36621;60.058;30.346;2023-03-14T14:55:13;98475.50;;;8.34;72.65
50650;BME280;36621;60.058;30.346;2023-03-14T15:02:49;98486.28;;;8.16;70.66
50650;BME280;36621;60.058;30.346;2023-03-14T15:10:25;98473.19;;;7.87;71.69
50650;BME280;36621;60.058;30.346;2023-03-14T15:17:57;98467.53;;;7.83;71.29
50650;BME280;36621;60.058;30.346;2023-03-14T15:25:30;98495.34;;;8.03;71.45
50650;BME280;36621;60.058;30.346;2023-03-14T15:33:02;98478.03;;;7.99;71.64
50650;BME280;36621;60.058;30.346;2023-03-14T15:40:34;98516.31;;;8.11;71.58
50650;BME280;36621;60.058;30.346;2023-03-14T15:48:08;98541.28;;;8.13;71.15
50650;BME280;36621;60.058;30.346;2023-03-14T15:55:49;98520.03;;;7.93;71.07
50650;BME280;36621;60.058;30.346;2023-03-14T16:03:22;98540.53;;;7.99;72.31
50650;BME280;36621;60.058;30.346;2023-03-14T16:10:59;98586.44;;;8.00;71.10
50650;BME280;36621;60.058;30.346;2023-03-14T16:18:32;98574.19;;;7.89;71.67
50650;BME280;36621;60.058;30.346;2023-03-14T16:26:07;98597.22;;;7.92;72.04
50650;BME280;36621;60.058;30.346;2023-03-14T16:33:39;98615.03;;;7.84;71.86
50650;BME280;36621;60.058;30.346;2023-03-14T16:41:13;98625.41;;;7.96;71.83
50650;BME280;36621;60.058;30.346;2023-03-14T16:48:46;98633.66;;;7.91;71.52
50650;BME280;36621;60.058;30.346;2023-03-14T16:56:19;98649.66;;;7.92;71.97
50650;BME280;36621;60.058;30.346;2023-03-14T17:03:52;98650.44;;;7.93;71.68
50650;BME280;36621;60.058;30.346;2023-03-14T17:11:28;98653.06;;;7.98;72.02
50650;BME280;36621;60.058;30.346;2023-03-14T17:19:02;98652.53;;;7.59;71.88
50650;BME280;36621;60.058;30.346;2023-03-14T17:26:35;98585.38;;;7.23;71.48
50650;BME280;36621;60.058;30.346;2023-03-14T17:34:07;98629.13;;;7.36;71.50
50650;BME280;36621;60.058;30.346;2023-03-14T17:41:40;98678.66;;;7.69;71.82
50650;BME280;36621;60.058;30.346;2023-03-14T17:49:14;98707.63;;;7.74;72.16
50650;BME280;36621;60.058;30.346;2023-03-14T17:56:47;98719.91;;;7.71;71.90
50650;BME280;36621;60.058;30.346;2023-03-14T18:04:19;98726.56;;;7.65;72.23
50650;BME280;36621;60.058;30.346;2023-03-14T18:11:55;98717.91;;;7.63;72.17
50650;BME280;36621;60.058;30.346;2023-03-14T18:19:27;98703.81;;;7.33;71.32
50650;BME280;36621;60.058;30.346;2023-03-14T18:27:00;98738.41;;;7.27;71.25
50650;BME280;36621;60.058;30.346;2023-03-14T18:34:32;98745.94;;;7.17;72.21
50650;BME280;36621;60.058;30.346;2023-03-14T18:42:04;98739.38;;;7.04;72.15
50650;BME280;36621;60.058;30.346;2023-03-14T18:49:37;98739.06;;;7.05;71.72
50650;BME280;36621;60.058;30.346;2023-03-14T18:57:10;98737.75;;;7.03;71.87
50650;BME280;36621;60.058;30.346;2023-03-14T19:04:42;98732.66;;;6.82;72.03
50650;BME280;36621;60.058;30.346;2023-03-14T19:12:15;98724.78;;;6.67;72.59
50650;BME280;36621;60.058;30.346;2023-03-14T19:19:48;98742.28;;;6.74;71.91
50650;BME280;36621;60.058;30.346;2023-03-14T19:27:22;98738.69;;;6.79;71.95
50650;BME280;36621;60.058;30.346;2023-03-14T19:34:55;98750.69;;;6.92;72.69
50650;BME280;36621;60.058;30.346;2023-03-14T19:42:27;98738.69;;;6.79;73.22
50650;BME280;36621;60.058;30.346;2023-03-14T19:49:59;98743.47;;;6.68;72.93
50650;BME280;36621;60.058;30.346;2023-03-14T19:57:32;98763.91;;;6.80;72.99
50650;BME280;36621;60.058;30.346;2023-03-14T20:05:07;98753.53;;;6.82;74.02
50650;BME280;36621;60.058;30.346;2023-03-14T20:12:40;98744.06;;;6.65;73.44
50650;BME280;36621;60.058;30.346;2023-03-14T20:20:12;98747.69;;;6.74;73.60
50650;BME280;36621;60.058;30.346;2023-03-14T20:27:45;98742.56;;;6.73;72.95
50650;BME280;36621;60.058;30.346;2023-03-14T20:35:17;98727.78;;;6.65;73.21
50650;BME280;36621;60.058;30.346;2023-03-14T20:42:54;98758.41;;;6.85;73.31
50650;BME280;36621;60.058;30.346;2023-03-14T20:50:26;98744.28;;;6.69;72.50
50650;BME280;36621;60.058;30.346;2023-03-14T20:57:59;98739.72;;;6.64;73.44
50650;BME280;36621;60.058;30.346;2023-03-14T21:05:31;98745.41;;;6.49;73.42
50650;BME280;36621;60.058;30.346;2023-03-14T21:13:04;98754.47;;;6.58;73.92
50650;BME280;36621;60.058;30.346;2023-03-14T21:20:38;98748.25;;;6.57;72.83
50650;BME280;36621;60.058;30.346;2023-03-14T21:28:11;98726.63;;;6.52;72.34
50650;BME280;36621;60.058;30.346;2023-03-14T21:35:43;98745.44;;;6.63;72.74
50650;BME280;36621;60.058;30.346;2023-03-14T21:43:16;98744.22;;;6.55;73.23
50650;BME280;36621;60.058;30.346;2023-03-14T21:50:49;98641.16;;;5.84;73.60
50650;BME280;36621;60.058;30.346;2023-03-14T21:58:22;98728.09;;;6.45;73.86
50650;BME280;36621;60.058;30.346;2023-03-14T22:05:54;98710.97;;;6.30;74.18
50650;BME280;36621;60.058;30.346;2023-03-14T22:13:26;98717.72;;;6.33;73.77
50650;BME280;36621;60.058;30.346;2023-03-14T22:20:58;98724.38;;;6.21;74.48
50650;BME280;36621;60.058;30.346;2023-03-14T22:28:31;98705.41;;;6.21;74.00
50650;BME280;36621;60.058;30.346;2023-03-14T22:36:04;98710.09;;;6.16;75.13
50650;BME280;36621;60.058;30.346;2023-03-14T22:43:37;98729.06;;;6.16;74.44
50650;BME280;36621;60.058;30.346;2023-03-14T22:51:10;98724.97;;;6.18;74.85
50650;BME280;36621;60.058;30.346;2023-03-14T22:58:42;98719.00;;;6.16;75.21
50650;BME280;36621;60.058;30.346;2023-03-14T23:06:14;98698.06;;;6.03;75.45
50650;BME280;36621;60.058;30.346;2023-03-14T23:13:47;98710.28;;;6.00;74.99
50650;BME280;36621;60.058;30.346;2023-03-14T23:21:20;98689.16;;;5.78;75.54
50650;BME280;36621;60.058;30.346;2023-03-14T23:28:54;98707.09;;;5.98;75.57
50650;BME280;36621;60.058;30.346;2023-03-14T23:36:25;98712.53;;;5.93;75.20
50650;BME280;36621;60.058;30.346;2023-03-14T23:43:58;98710.53;;;6.04;75.41
50650;BME280;36621;60.058;30.346;2023-03-14T23:51:31;98717.34;;;5.96;75.35
50650;BME280;36621;60.058;30.346;2023-03-14T23:59:04;98722.91;;;6.10;75.22
